sensor_id;sensor_type;location;lat;lon;timestamp;P1;durP1;ratioP1;P2;durP2;ratioP2
74833;SDS011;63361;52.384;20.930;2023-03-23T00:01:20;38.50;;;19.90;;
74833;SDS011;63361;52.384;20.930;2023-03-23T00:03:48;38.38;;;20.08;;
74833;SDS011;63361;52.384;20.930;2023-03-23T00:06:15;39.50;;;19.30;;
74833;SDS011;63361;52.384;20.930;2023-03-23T00:08:42;32.50;;;18.15;;
74833;SDS011;63361;52.384;20.930;2023-03-23T00:11:13;35.03;;;18.17;;
74833;SDS011;63361;52.384;20.930;2023-03-23T00:13:40;35.42;;;18.35;;
74833;SDS011;63361;52.384;20.930;2023-03-23T00:16:07;30.85;;;17.17;;
74833;SDS011;63361;52.384;20.930;2023-03-23T00:18:43;32.57;;;16.87;;
74833;SDS011;63361;52.384;20.930;2023-03-23T00:21:09;30.27;;;15.98;;
74833;SDS011;63361;52.384;20.930;2023-03-23T00:23:35;29.27;;;17.00;;
74833;SDS011;63361;52.384;20.930;2023-03-23T00:26:00;36.37;;;18.50;;
74833;SDS011;63361;52.384;20.930;2023-03-23T00:28:27;32.70;;;18.10;;
74833;SDS011;63361;52.384;20.930;2023-03-23T00:30:59;29.75;;;16.08;;
74833;SDS011;63361;52.384;20.930;2023-03-23T00:33:26;27.15;;;14.75;;
74833;SDS011;63361;52.384;20.930;2023-03-23T00:35:53;28.00;;;14.57;;
74833;SDS011;63361;52.384;20.930;2023-03-23T00:38:20;30.85;;;15.30;;
74833;SDS011;63361;52.384;20.930;2023-03-23T00:40:47;27.67;;;14.63;;
74833;SDS011;63361;52.384;20.930;2023-03-23T00:43:18;31.00;;;15.80;;
74833;SDS011;63361;52.384;20.930;2023-03-23T00:45:44;27.67;;;14.55;;
74833;SDS011;63361;52.384;20.930;2023-03-23T00:48:17;29.38;;;15.77;;
74833;SDS011;63361;52.384;20.930;2023-03-23T00:50:46;30.67;;;15.20;;
74833;SDS011;63361;52.384;20.930;2023-03-23T00:53:11;28.20;;;14.93;;
74833;SDS011;63361;52.384;20.930;2023-03-23T00:55:37;32.33;;;15.77;;
74833;SDS011;63361;52.384;20.930;2023-03-23T00:58:02;33.80;;;15.73;;
74833;SDS011;63361;52.384;20.930;2023-03-23T01:00:28;32.67;;;16.90;;
74833;SDS011;63361;52.384;20.930;2023-03-23T01:02:53;33.10;;;17.23;;
74833;SDS011;63361;52.384;20.930;2023-03-23T01:05:19;35.60;;;17.70;;
74833;SDS011;63361;52.384;20.930;2023-03-23T01:07:44;31.20;;;15.80;;
74833;SDS011;63361;52.384;20.930;2023-03-23T01:10:11;31.65;;;16.85;;
74833;SDS011;63361;52.384;20.930;2023-03-23T01:12:40;32.03;;;17.23;;
74833;SDS011;63361;52.384;20.930;2023-03-23T01:15:06;31.93;;;17.73;;
74833;SDS011;63361;52.384;20.930;2023-03-23T01:17:31;40.33;;;20.08;;
74833;SDS011;63361;52.384;20.930;2023-03-23T01:19:57;43.00;;;20.50;;
74833;SDS011;63361;52.384;20.930;2023-03-23T01:22:22;42.33;;;20.30;;
74833;SDS011;63361;52.384;20.930;2023-03-23T01:24:48;41.00;;;20.17;;
74833;SDS011;63361;52.384;20.930;2023-03-23T01:27:13;40.38;;;20.67;;
74833;SDS011;63361;52.384;20.930;2023-03-23T01:29:38;40.33;;;20.37;;
74833;SDS011;63361;52.384;20.930;2023-03-23T01:32:04;35.77;;;19.37;;
74833;SDS011;63361;52.384;20.930;2023-03-23T01:34:29;37.47;;;19.90;;
74833;SDS011;63361;52.384;20.930;2023-03-23T01:36:56;37.33;;;19.50;;
74833;SDS011;63361;52.384;20.930;2023-03-23T01:39:21;44.63;;;21.43;;
74833;SDS011;63361;52.384;20.930;2023-03-23T01:41:46;37.73;;;19.23;;
74833;SDS011;63361;52.384;20.930;2023-03-23T01:46:40;35.45;;;18.50;;
74833;SDS011;63361;52.384;20.930;2023-03-23T01:49:25;37.37;;;18.23;;
74833;SDS011;63361;52.384;20.930;2023-03-23T01:51:59;32.95;;;17.23;;
74833;SDS011;63361;52.384;20.930;2023-03-23T01:54:27;35.03;;;16.90;;
74833;SDS011;63361;52.384;20.930;2023-03-23T01:59:28;40.40;;;19.07;;
74833;SDS011;63361;52.384;20.930;2023-03-23T02:01:56;34.80;;;18.02;;
74833;SDS011;63361;52.384;20.930;2023-03-23T02:04:22;35.17;;;18.45;;
74833;SDS011;63361;52.384;20.930;2023-03-23T02:06:50;33.90;;;16.65;;
74833;SDS011;63361;52.384;20.930;2023-03-23T02:09:17;33.60;;;17.87;;
74833;SDS011;63361;52.384;20.930;2023-03-23T02:11:43;32.60;;;16.63;;
74833;SDS011;63361;52.384;20.930;2023-03-23T02:14:10;29.60;;;17.08;;
74833;SDS011;63361;52.384;20.930;2023-03-23T02:16:44;30.13;;;16.97;;
74833;SDS011;63361;52.384;20.930;2023-03-23T02:21:54;30.65;;;16.33;;
74833;SDS011;63361;52.384;20.930;2023-03-23T02:24:52;31.45;;;17.80;;
74833;SDS011;63361;52.384;20.930;2023-03-23T02:33:38;30.00;;;16.15;;
74833;SDS011;63361;52.384;20.930;2023-03-23T02:38:40;30.63;;;15.90;;
74833;SDS011;63361;52.384;20.930;2023-03-23T02:41:15;32.13;;;16.03;;
74833;SDS011;63361;52.384;20.930;2023-03-23T02:43:44;27.45;;;16.13;;
74833;SDS011;63361;52.384;20.930;2023-03-23T02:46:11;27.58;;;14.77;;
74833;SDS011;63361;52.384;20.930;2023-03-23T02:48:39;32.85;;;16.13;;
74833;SDS011;63361;52.384;20.930;2023-03-23T02:51:07;26.35;;;15.68;;
74833;SDS011;63361;52.384;20.930;2023-03-23T02:53:36;27.33;;;15.43;;
74833;SDS011;63361;52.384;20.930;2023-03-23T02:56:04;30.48;;;15.55;;
74833;SDS011;63361;52.384;20.930;2023-03-23T02:58:32;31.30;;;16.55;;
74833;SDS011;63361;52.384;20.930;2023-03-23T03:00:58;28.58;;;16.25;;
74833;SDS011;63361;52.384;20.930;2023-03-23T03:03:26;27.67;;;15.65;;
74833;SDS011;63361;52.384;20.930;2023-03-23T03:06:23;28.80;;;15.07;;
74833;SDS011;63361;52.384;20.930;2023-03-23T03:11:29;26.88;;;14.77;;
74833;SDS011;63361;52.384;20.930;2023-03-23T03:14:00;30.77;;;16.02;;
74833;SDS011;63361;52.384;20.930;2023-03-23T03:16:33;29.42;;;15.27;;
74833;SDS011;63361;52.384;20.930;2023-03-23T03:19:05;26.50;;;15.30;;
74833;SDS011;63361;52.384;20.930;2023-03-23T03:21:37;30.27;;;15.35;;
74833;SDS011;63361;52.384;20.930;2023-03-23T03:24:06;31.35;;;14.60;;
74833;SDS011;63361;52.384;20.930;2023-03-23T03:26:40;26.50;;;14.48;;
74833;SDS011;63361;52.384;20.930;2023-03-23T03:29:16;28.45;;;15.10;;
74833;SDS011;63361;52.384;20.930;2023-03-23T03:31:45;26.10;;;14.63;;
74833;SDS011;63361;52.384;20.930;2023-03-23T03:34:14;29.27;;;15.48;;
74833;SDS011;63361;52.384;20.930;2023-03-23T03:36:42;27.00;;;15.43;;
74833;SDS011;63361;52.384;20.930;2023-03-23T03:39:11;26.67;;;14.70;;
74833;SDS011;63361;52.384;20.930;2023-03-23T03:41:39;28.45;;;15.25;;
74833;SDS011;63361;52.384;20.930;2023-03-23T03:44:05;28.70;;;15.90;;
74833;SDS011;63361;52.384;20.930;2023-03-23T03:46:31;27.33;;;15.50;;
74833;SDS011;63361;52.384;20.930;2023-03-23T03:49:01;30.63;;;15.85;;
74833;SDS011;63361;52.384;20.930;2023-03-23T03:51:29;28.10;;;14.97;;
74833;SDS011;63361;52.384;20.930;2023-03-23T03:53:56;33.08;;;16.10;;
74833;SDS011;63361;52.384;20.930;2023-03-23T03:56:21;29.95;;;16.92;;
74833;SDS011;63361;52.384;20.930;2023-03-23T03:58:48;27.55;;;15.00;;
74833;SDS011;63361;52.384;20.930;2023-03-23T04:01:15;29.90;;;16.70;;
74833;SDS011;63361;52.384;20.930;2023-03-23T04:03:41;30.25;;;16.33;;
74833;SDS011;63361;52.384;20.930;2023-03-23T04:06:07;30.38;;;17.08;;
74833;SDS011;63361;52.384;20.930;2023-03-23T04:08:34;32.35;;;17.60;;
74833;SDS011;63361;52.384;20.930;2023-03-23T04:11:00;30.08;;;16.10;;
74833;SDS011;63361;52.384;20.930;2023-03-23T04:13:26;31.40;;;16.97;;
74833;SDS011;63361;52.384;20.930;2023-03-23T04:15:52;27.93;;;15.17;;
74833;SDS011;63361;52.384;20.930;2023-03-23T04:18:17;28.75;;;15.15;;
74833;SDS011;63361;52.384;20.930;2023-03-23T04:20:44;29.77;;;16.90;;
74833;SDS011;63361;52.384;20.930;2023-03-23T04:23:12;34.20;;;16.40;;
74833;SDS011;63361;52.384;20.930;2023-03-23T04:25:39;26.38;;;15.48;;
74833;SDS011;63361;52.384;20.930;2023-03-23T04:28:07;29.40;;;15.10;;
74833;SDS011;63361;52.384;20.930;2023-03-23T04:30:35;33.05;;;17.17;;
74833;SDS011;63361;52.384;20.930;2023-03-23T04:33:00;28.30;;;15.63;;
74833;SDS011;63361;52.384;20.930;2023-03-23T04:35:26;28.00;;;15.57;;
74833;SDS011;63361;52.384;20.930;2023-03-23T04:37:54;34.40;;;15.68;;
74833;SDS011;63361;52.384;20.930;2023-03-23T04:40:20;29.00;;;15.47;;
74833;SDS011;63361;52.384;20.930;2023-03-23T04:42:46;29.00;;;16.10;;
74833;SDS011;63361;52.384;20.930;2023-03-23T04:45:15;28.60;;;16.27;;
74833;SDS011;63361;52.384;20.930;2023-03-23T04:47:46;27.80;;;16.65;;
74833;SDS011;63361;52.384;20.930;2023-03-23T04:50:18;29.33;;;15.23;;
74833;SDS011;63361;52.384;20.930;2023-03-23T04:52:49;27.70;;;14.10;;
74833;SDS011;63361;52.384;20.930;2023-03-23T04:55:16;27.95;;;14.77;;
74833;SDS011;63361;52.384;20.930;2023-03-23T04:57:42;27.73;;;15.25;;
74833;SDS011;63361;52.384;20.930;2023-03-23T05:00:09;28.35;;;14.20;;
74833;SDS011;63361;52.384;20.930;2023-03-23T05:02:39;27.07;;;14.40;;
74833;SDS011;63361;52.384;20.930;2023-03-23T05:05:06;31.00;;;15.10;;
74833;SDS011;63361;52.384;20.930;2023-03-23T05:07:37;32.80;;;15.25;;
74833;SDS011;63361;52.384;20.930;2023-03-23T05:10:04;27.45;;;14.70;;
74833;SDS011;63361;52.384;20.930;2023-03-23T05:12:30;26.70;;;13.87;;
74833;SDS011;63361;52.384;20.930;2023-03-23T05:14:55;28.48;;;14.70;;
74833;SDS011;63361;52.384;20.930;2023-03-23T05:17:21;22.30;;;13.37;;
74833;SDS011;63361;52.384;20.930;2023-03-23T05:19:49;27.67;;;13.43;;
74833;SDS011;63361;52.384;20.930;2023-03-23T05:22:15;25.77;;;13.57;;
74833;SDS011;63361;52.384;20.930;2023-03-23T05:24:40;22.77;;;12.50;;
74833;SDS011;63361;52.384;20.930;2023-03-23T05:27:07;26.53;;;12.93;;
74833;SDS011;63361;52.384;20.930;2023-03-23T05:29:33;25.98;;;13.93;;
74833;SDS011;63361;52.384;20.930;2023-03-23T05:32:01;24.08;;;13.00;;
74833;SDS011;63361;52.384;20.930;2023-03-23T05:34:28;24.15;;;13.30;;
74833;SDS011;63361;52.384;20.930;2023-03-23T05:36:57;21.83;;;12.40;;
74833;SDS011;63361;52.384;20.930;2023-03-23T05:39:23;24.23;;;12.48;;
74833;SDS011;63361;52.384;20.930;2023-03-23T05:41:48;23.33;;;12.70;;
74833;SDS011;63361;52.384;20.930;2023-03-23T05:44:13;24.80;;;13.07;;
74833;SDS011;63361;52.384;20.930;2023-03-23T05:46:39;24.02;;;12.90;;
74833;SDS011;63361;52.384;20.930;2023-03-23T05:49:05;22.73;;;12.33;;
74833;SDS011;63361;52.384;20.930;2023-03-23T05:51:30;19.77;;;11.65;;
74833;SDS011;63361;52.384;20.930;2023-03-23T05:53:56;25.93;;;12.50;;
74833;SDS011;63361;52.384;20.930;2023-03-23T05:56:22;23.80;;;12.40;;
74833;SDS011;63361;52.384;20.930;2023-03-23T05:58:48;22.08;;;11.48;;
74833;SDS011;63361;52.384;20.930;2023-03-23T06:01:13;20.33;;;11.20;;
74833;SDS011;63361;52.384;20.930;2023-03-23T06:03:39;22.37;;;11.50;;
74833;SDS011;63361;52.384;20.930;2023-03-23T06:06:04;22.95;;;11.80;;
74833;SDS011;63361;52.384;20.930;2023-03-23T06:08:30;20.23;;;11.60;;
74833;SDS011;63361;52.384;20.930;2023-03-23T06:10:56;23.02;;;11.32;;
74833;SDS011;63361;52.384;20.930;2023-03-23T06:13:21;22.50;;;11.60;;
74833;SDS011;63361;52.384;20.930;2023-03-23T06:15:48;22.63;;;11.20;;
74833;SDS011;63361;52.384;20.930;2023-03-23T06:18:13;21.10;;;10.67;;
74833;SDS011;63361;52.384;20.930;2023-03-23T06:20:39;20.67;;;10.30;;
74833;SDS011;63361;52.384;20.930;2023-03-23T06:23:05;19.67;;;10.80;;
74833;SDS011;63361;52.384;20.930;2023-03-23T06:25:31;21.27;;;10.60;;
74833;SDS011;63361;52.384;20.930;2023-03-23T06:27:57;18.40;;;10.07;;
74833;SDS011;63361;52.384;20.930;2023-03-23T06:30:22;17.92;;;9.85;;
74833;SDS011;63361;52.384;20.930;2023-03-23T06:32:48;21.43;;;10.60;;
74833;SDS011;63361;52.384;20.930;2023-03-23T06:35:13;17.47;;;9.77;;
74833;SDS011;63361;52.384;20.930;2023-03-23T06:37:40;17.67;;;9.98;;
74833;SDS011;63361;52.384;20.930;2023-03-23T06:40:05;16.03;;;10.03;;
74833;SDS011;63361;52.384;20.930;2023-03-23T06:42:31;17.13;;;10.13;;
74833;SDS011;63361;52.384;20.930;2023-03-23T06:44:57;19.73;;;10.52;;
74833;SDS011;63361;52.384;20.930;2023-03-23T06:47:23;18.43;;;9.20;;
74833;SDS011;63361;52.384;20.930;2023-03-23T06:49:49;19.27;;;9.75;;
74833;SDS011;63361;52.384;20.930;2023-03-23T06:52:15;18.33;;;9.88;;
74833;SDS011;63361;52.384;20.930;2023-03-23T06:54:40;18.10;;;9.43;;
74833;SDS011;63361;52.384;20.930;2023-03-23T06:57:06;24.03;;;10.03;;
74833;SDS011;63361;52.384;20.930;2023-03-23T06:59:32;16.92;;;9.23;;
74833;SDS011;63361;52.384;20.930;2023-03-23T07:01:58;16.73;;;9.57;;
74833;SDS011;63361;52.384;20.930;2023-03-23T07:04:23;16.73;;;8.83;;
74833;SDS011;63361;52.384;20.930;2023-03-23T07:06:49;20.85;;;9.50;;
74833;SDS011;63361;52.384;20.930;2023-03-23T07:09:14;20.00;;;9.83;;
74833;SDS011;63361;52.384;20.930;2023-03-23T07:11:40;15.95;;;8.63;;
74833;SDS011;63361;52.384;20.930;2023-03-23T07:14:06;19.10;;;9.47;;
74833;SDS011;63361;52.384;20.930;2023-03-23T07:16:32;16.70;;;8.05;;
74833;SDS011;63361;52.384;20.930;2023-03-23T07:18:57;14.67;;;7.80;;
74833;SDS011;63361;52.384;20.930;2023-03-23T07:21:23;12.50;;;7.10;;
74833;SDS011;63361;52.384;20.930;2023-03-23T07:23:48;13.83;;;7.67;;
74833;SDS011;63361;52.384;20.930;2023-03-23T07:26:14;16.43;;;7.13;;
74833;SDS011;63361;52.384;20.930;2023-03-23T07:28:39;13.75;;;6.53;;
74833;SDS011;63361;52.384;20.930;2023-03-23T07:31:05;13.03;;;6.83;;
74833;SDS011;63361;52.384;20.930;2023-03-23T07:33:32;17.55;;;8.05;;
74833;SDS011;63361;52.384;20.930;2023-03-23T07:35:58;11.90;;;6.90;;
74833;SDS011;63361;52.384;20.930;2023-03-23T07:38:25;15.13;;;7.07;;
74833;SDS011;63361;52.384;20.930;2023-03-23T07:40:52;11.48;;;6.28;;
74833;SDS011;63361;52.384;20.930;2023-03-23T07:43:17;12.43;;;6.33;;
74833;SDS011;63361;52.384;20.930;2023-03-23T07:45:44;16.25;;;7.00;;
74833;SDS011;63361;52.384;20.930;2023-03-23T07:48:10;14.70;;;6.95;;
74833;SDS011;63361;52.384;20.930;2023-03-23T07:50:35;12.30;;;7.13;;
74833;SDS011;63361;52.384;20.930;2023-03-23T07:53:02;14.73;;;8.18;;
74833;SDS011;63361;52.384;20.930;2023-03-23T07:55:27;12.57;;;7.13;;
74833;SDS011;63361;52.384;20.930;2023-03-23T07:57:53;11.43;;;5.72;;
74833;SDS011;63361;52.384;20.930;2023-03-23T08:00:20;10.80;;;5.93;;
74833;SDS011;63361;52.384;20.930;2023-03-23T08:02:48;12.00;;;6.20;;
74833;SDS011;63361;52.384;20.930;2023-03-23T08:05:16;13.35;;;6.10;;
74833;SDS011;63361;52.384;20.930;2023-03-23T08:07:43;11.45;;;5.80;;
74833;SDS011;63361;52.384;20.930;2023-03-23T08:10:10;11.63;;;5.90;;
74833;SDS011;63361;52.384;20.930;2023-03-23T08:12:41;11.30;;;5.50;;
74833;SDS011;63361;52.384;20.930;2023-03-23T08:15:08;9.65;;;5.10;;
74833;SDS011;63361;52.384;20.930;2023-03-23T08:17:38;11.80;;;5.60;;
74833;SDS011;63361;52.384;20.930;2023-03-23T08:20:05;9.55;;;5.40;;
74833;SDS011;63361;52.384;20.930;2023-03-23T08:22:37;11.25;;;5.68;;
74833;SDS011;63361;52.384;20.930;2023-03-23T08:25:05;13.50;;;5.23;;
74833;SDS011;63361;52.384;20.930;2023-03-23T08:27:32;10.48;;;5.32;;
74833;SDS011;63361;52.384;20.930;2023-03-23T08:29:57;10.60;;;5.55;;
74833;SDS011;63361;52.384;20.930;2023-03-23T08:32:23;10.90;;;5.40;;
74833;SDS011;63361;52.384;20.930;2023-03-23T08:34:49;10.68;;;5.18;;
74833;SDS011;63361;52.384;20.930;2023-03-23T08:37:14;10.90;;;4.97;;
74833;SDS011;63361;52.384;20.930;2023-03-23T08:39:40;10.40;;;5.13;;
74833;SDS011;63361;52.384;20.930;2023-03-23T08:42:05;21.63;;;12.63;;
74833;SDS011;63361;52.384;20.930;2023-03-23T08:44:31;12.23;;;5.50;;
74833;SDS011;63361;52.384;20.930;2023-03-23T08:46:56;10.13;;;5.37;;
74833;SDS011;63361;52.384;20.930;2023-03-23T08:49:22;13.30;;;6.23;;
74833;SDS011;63361;52.384;20.930;2023-03-23T08:51:48;15.43;;;5.68;;
74833;SDS011;63361;52.384;20.930;2023-03-23T08:54:13;10.27;;;5.43;;
74833;SDS011;63361;52.384;20.930;2023-03-23T08:56:39;11.38;;;5.55;;
74833;SDS011;63361;52.384;20.930;2023-03-23T08:59:04;10.10;;;4.67;;
74833;SDS011;63361;52.384;20.930;2023-03-23T09:01:29;10.63;;;5.20;;
74833;SDS011;63361;52.384;20.930;2023-03-23T09:03:55;9.27;;;5.47;;
74833;SDS011;63361;52.384;20.930;2023-03-23T09:06:20;9.05;;;4.72;;
74833;SDS011;63361;52.384;20.930;2023-03-23T09:08:46;9.33;;;5.00;;
74833;SDS011;63361;52.384;20.930;2023-03-23T09:11:11;8.67;;;4.80;;
74833;SDS011;63361;52.384;20.930;2023-03-23T09:13:37;10.37;;;5.17;;
74833;SDS011;63361;52.384;20.930;2023-03-23T09:16:04;11.02;;;5.00;;
74833;SDS011;63361;52.384;20.930;2023-03-23T09:18:31;10.23;;;4.70;;
74833;SDS011;63361;52.384;20.930;2023-03-23T09:21:00;12.05;;;5.22;;
74833;SDS011;63361;52.384;20.930;2023-03-23T09:23:26;9.53;;;4.77;;
74833;SDS011;63361;52.384;20.930;2023-03-23T09:25:51;12.85;;;4.55;;
74833;SDS011;63361;52.384;20.930;2023-03-23T09:28:17;9.17;;;4.70;;
74833;SDS011;63361;52.384;20.930;2023-03-23T09:30:43;7.55;;;4.53;;
74833;SDS011;63361;52.384;20.930;2023-03-23T09:33:10;9.15;;;4.65;;
74833;SDS011;63361;52.384;20.930;2023-03-23T09:35:36;7.03;;;3.97;;
74833;SDS011;63361;52.384;20.930;2023-03-23T09:38:03;9.80;;;4.67;;
74833;SDS011;63361;52.384;20.930;2023-03-23T09:40:36;9.40;;;4.72;;
74833;SDS011;63361;52.384;20.930;2023-03-23T09:43:29;9.32;;;4.88;;
74833;SDS011;63361;52.384;20.930;2023-03-23T09:54:09;10.20;;;4.55;;
74833;SDS011;63361;52.384;20.930;2023-03-23T09:56:35;7.72;;;4.28;;
74833;SDS011;63361;52.384;20.930;2023-03-23T09:59:23;7.93;;;3.90;;
74833;SDS011;63361;52.384;20.930;2023-03-23T10:07:58;7.72;;;4.28;;
74833;SDS011;63361;52.384;20.930;2023-03-23T10:16:03;8.40;;;3.70;;
74833;SDS011;63361;52.384;20.930;2023-03-23T10:18:37;11.30;;;3.88;;
74833;SDS011;63361;52.384;20.930;2023-03-23T10:21:06;8.13;;;3.05;;
74833;SDS011;63361;52.384;20.930;2023-03-23T10:23:43;6.20;;;3.05;;
74833;SDS011;63361;52.384;20.930;2023-03-23T10:28:50;8.70;;;3.20;;
74833;SDS011;63361;52.384;20.930;2023-03-23T10:31:25;6.97;;;2.95;;
74833;SDS011;63361;52.384;20.930;2023-03-23T10:33:57;7.22;;;3.03;;
74833;SDS011;63361;52.384;20.930;2023-03-23T10:36:35;7.47;;;3.20;;
74833;SDS011;63361;52.384;20.930;2023-03-23T10:41:41;6.70;;;2.90;;
74833;SDS011;63361;52.384;20.930;2023-03-23T10:44:12;5.85;;;2.45;;
74833;SDS011;63361;52.384;20.930;2023-03-23T10:46:45;6.38;;;2.75;;
74833;SDS011;63361;52.384;20.930;2023-03-23T10:49:21;8.60;;;2.67;;
74833;SDS011;63361;52.384;20.930;2023-03-23T10:52:33;7.28;;;2.42;;
74833;SDS011;63361;52.384;20.930;2023-03-23T10:57:34;4.88;;;2.22;;
74833;SDS011;63361;52.384;20.930;2023-03-23T11:02:43;6.68;;;2.72;;
74833;SDS011;63361;52.384;20.930;2023-03-23T11:05:23;7.60;;;3.25;;
74833;SDS011;63361;52.384;20.930;2023-03-23T11:07:55;8.13;;;3.23;;
74833;SDS011;63361;52.384;20.930;2023-03-23T11:10:23;5.85;;;3.00;;
74833;SDS011;63361;52.384;20.930;2023-03-23T11:12:52;5.80;;;1.98;;
74833;SDS011;63361;52.384;20.930;2023-03-23T11:15:30;5.47;;;1.77;;
74833;SDS011;63361;52.384;20.930;2023-03-23T11:18:02;4.57;;;1.63;;
74833;SDS011;63361;52.384;20.930;2023-03-23T11:20:38;8.20;;;2.03;;
74833;SDS011;63361;52.384;20.930;2023-03-23T11:23:23;4.43;;;1.75;;
74833;SDS011;63361;52.384;20.930;2023-03-23T11:28:19;6.30;;;2.10;;
74833;SDS011;63361;52.384;20.930;2023-03-23T11:30:45;4.55;;;2.17;;
74833;SDS011;63361;52.384;20.930;2023-03-23T11:33:11;7.80;;;2.10;;
74833;SDS011;63361;52.384;20.930;2023-03-23T11:35:42;6.70;;;2.10;;
74833;SDS011;63361;52.384;20.930;2023-03-23T11:38:15;6.22;;;2.15;;
74833;SDS011;63361;52.384;20.930;2023-03-23T11:40:47;5.20;;;2.40;;
74833;SDS011;63361;52.384;20.930;2023-03-23T11:43:14;5.65;;;2.05;;
74833;SDS011;63361;52.384;20.930;2023-03-23T11:48:54;6.97;;;2.00;;
74833;SDS011;63361;52.384;20.930;2023-03-23T11:54:12;5.97;;;2.63;;
74833;SDS011;63361;52.384;20.930;2023-03-23T11:56:45;5.05;;;1.85;;
74833;SDS011;63361;52.384;20.930;2023-03-23T11:59:15;3.47;;;1.65;;
74833;SDS011;63361;52.384;20.930;2023-03-23T12:10:43;5.20;;;2.38;;
74833;SDS011;63361;52.384;20.930;2023-03-23T12:16:24;8.70;;;1.73;;
74833;SDS011;63361;52.384;20.930;2023-03-23T12:19:19;6.03;;;2.28;;
74833;SDS011;63361;52.384;20.930;2023-03-23T12:24:28;4.25;;;2.00;;
74833;SDS011;63361;52.384;20.930;2023-03-23T12:30:45;6.73;;;2.63;;
74833;SDS011;63361;52.384;20.930;2023-03-23T12:38:38;5.90;;;1.95;;
74833;SDS011;63361;52.384;20.930;2023-03-23T12:41:32;5.75;;;2.30;;
74833;SDS011;63361;52.384;20.930;2023-03-23T12:44:04;4.80;;;2.03;;
74833;SDS011;63361;52.384;20.930;2023-03-23T12:54:55;5.63;;;2.20;;
74833;SDS011;63361;52.384;20.930;2023-03-23T12:57:36;6.83;;;2.43;;
74833;SDS011;63361;52.384;20.930;2023-03-23T13:00:13;9.32;;;2.22;;
74833;SDS011;63361;52.384;20.930;2023-03-23T13:07:52;5.53;;;2.00;;
74833;SDS011;63361;52.384;20.930;2023-03-23T13:10:26;4.70;;;2.10;;
74833;SDS011;63361;52.384;20.930;2023-03-23T13:12:54;8.70;;;2.28;;
74833;SDS011;63361;52.384;20.930;2023-03-23T13:21:01;6.10;;;2.30;;
74833;SDS011;63361;52.384;20.930;2023-03-23T13:23:40;4.50;;;1.77;;
74833;SDS011;63361;52.384;20.930;2023-03-23T13:26:11;5.85;;;1.88;;
74833;SDS011;63361;52.384;20.930;2023-03-23T13:28:49;7.07;;;2.03;;
74833;SDS011;63361;52.384;20.930;2023-03-23T13:31:23;4.70;;;1.88;;
74833;SDS011;63361;52.384;20.930;2023-03-23T13:33:58;8.20;;;2.40;;
74833;SDS011;63361;52.384;20.930;2023-03-23T13:36:28;7.70;;;1.97;;
74833;SDS011;63361;52.384;20.930;2023-03-23T13:38:54;7.13;;;2.13;;
74833;SDS011;63361;52.384;20.930;2023-03-23T13:41:22;5.20;;;1.90;;
74833;SDS011;63361;52.384;20.930;2023-03-23T13:43:48;8.30;;;2.40;;
74833;SDS011;63361;52.384;20.930;2023-03-23T13:46:24;8.27;;;2.43;;
74833;SDS011;63361;52.384;20.930;2023-03-23T13:51:46;5.20;;;2.10;;
74833;SDS011;63361;52.384;20.930;2023-03-23T14:01:52;7.90;;;2.10;;
74833;SDS011;63361;52.384;20.930;2023-03-23T14:04:19;6.07;;;2.40;;
74833;SDS011;63361;52.384;20.930;2023-03-23T14:06:46;7.07;;;2.20;;
74833;SDS011;63361;52.384;20.930;2023-03-23T14:09:17;4.82;;;2.40;;
74833;SDS011;63361;52.384;20.930;2023-03-23T14:12:00;6.50;;;2.58;;
74833;SDS011;63361;52.384;20.930;2023-03-23T14:14:34;6.30;;;2.08;;
74833;SDS011;63361;52.384;20.930;2023-03-23T14:17:13;5.40;;;2.55;;
74833;SDS011;63361;52.384;20.930;2023-03-23T14:19:41;4.33;;;2.10;;
74833;SDS011;63361;52.384;20.930;2023-03-23T14:22:16;5.32;;;2.33;;
74833;SDS011;63361;52.384;20.930;2023-03-23T14:24:49;6.55;;;2.47;;
74833;SDS011;63361;52.384;20.930;2023-03-23T14:27:16;8.02;;;2.83;;
74833;SDS011;63361;52.384;20.930;2023-03-23T14:29:44;6.80;;;3.13;;
74833;SDS011;63361;52.384;20.930;2023-03-23T14:32:12;8.13;;;2.83;;
74833;SDS011;63361;52.384;20.930;2023-03-23T14:34:41;7.35;;;3.08;;
74833;SDS011;63361;52.384;20.930;2023-03-23T14:37:11;6.40;;;3.10;;
74833;SDS011;63361;52.384;20.930;2023-03-23T14:39:38;8.53;;;3.77;;
74833;SDS011;63361;52.384;20.930;2023-03-23T14:42:05;6.97;;;3.08;;
74833;SDS011;63361;52.384;20.930;2023-03-23T14:44:34;6.10;;;3.10;;
74833;SDS011;63361;52.384;20.930;2023-03-23T14:47:04;7.53;;;3.50;;
74833;SDS011;63361;52.384;20.930;2023-03-23T14:49:39;6.65;;;3.17;;
74833;SDS011;63361;52.384;20.930;2023-03-23T14:52:11;7.75;;;3.38;;
74833;SDS011;63361;52.384;20.930;2023-03-23T14:54:38;8.23;;;2.92;;
74833;SDS011;63361;52.384;20.930;2023-03-23T14:57:14;8.80;;;3.20;;
74833;SDS011;63361;52.384;20.930;2023-03-23T14:59:40;6.72;;;3.17;;
74833;SDS011;63361;52.384;20.930;2023-03-23T15:02:09;8.07;;;3.05;;
74833;SDS011;63361;52.384;20.930;2023-03-23T15:04:38;8.60;;;3.13;;
74833;SDS011;63361;52.384;20.930;2023-03-23T15:07:04;7.35;;;3.45;;
74833;SDS011;63361;52.384;20.930;2023-03-23T15:09:31;8.27;;;3.10;;
74833;SDS011;63361;52.384;20.930;2023-03-23T15:11:59;5.47;;;2.80;;
74833;SDS011;63361;52.384;20.930;2023-03-23T15:14:28;6.07;;;2.58;;
74833;SDS011;63361;52.384;20.930;2023-03-23T15:16:58;8.15;;;3.42;;
74833;SDS011;63361;52.384;20.930;2023-03-23T15:19:26;7.47;;;3.05;;
74833;SDS011;63361;52.384;20.930;2023-03-23T15:22:16;7.03;;;3.07;;
74833;SDS011;63361;52.384;20.930;2023-03-23T15:24:47;7.72;;;3.30;;
74833;SDS011;63361;52.384;20.930;2023-03-23T15:27:16;7.05;;;3.10;;
74833;SDS011;63361;52.384;20.930;2023-03-23T15:29:49;7.00;;;3.22;;
74833;SDS011;63361;52.384;20.930;2023-03-23T15:32:27;10.50;;;3.60;;
74833;SDS011;63361;52.384;20.930;2023-03-23T15:34:54;7.37;;;3.30;;
74833;SDS011;63361;52.384;20.930;2023-03-23T15:37:26;6.85;;;2.60;;
74833;SDS011;63361;52.384;20.930;2023-03-23T15:39:53;5.38;;;2.80;;
74833;SDS011;63361;52.384;20.930;2023-03-23T15:42:21;6.65;;;3.58;;
74833;SDS011;63361;52.384;20.930;2023-03-23T15:44:54;7.50;;;3.10;;
74833;SDS011;63361;52.384;20.930;2023-03-23T15:47:32;6.50;;;3.07;;
74833;SDS011;63361;52.384;20.930;2023-03-23T15:50:19;6.95;;;2.80;;
74833;SDS011;63361;52.384;20.930;2023-03-23T15:52:57;11.82;;;3.78;;
74833;SDS011;63361;52.384;20.930;2023-03-23T15:55:27;8.37;;;2.97;;
74833;SDS011;63361;52.384;20.930;2023-03-23T15:57:57;8.90;;;3.80;;
74833;SDS011;63361;52.384;20.930;2023-03-23T16:00:24;8.13;;;3.53;;
74833;SDS011;63361;52.384;20.930;2023-03-23T16:02:55;7.57;;;3.50;;
74833;SDS011;63361;52.384;20.930;2023-03-23T16:05:23;17.80;;;6.50;;
74833;SDS011;63361;52.384;20.930;2023-03-23T16:07:49;10.43;;;4.28;;
74833;SDS011;63361;52.384;20.930;2023-03-23T16:10:19;7.13;;;3.17;;
74833;SDS011;63361;52.384;20.930;2023-03-23T16:12:46;11.37;;;5.03;;
74833;SDS011;63361;52.384;20.930;2023-03-23T16:15:12;9.15;;;4.72;;
74833;SDS011;63361;52.384;20.930;2023-03-23T16:17:38;12.20;;;4.63;;
74833;SDS011;63361;52.384;20.930;2023-03-23T16:20:11;6.07;;;2.67;;
74833;SDS011;63361;52.384;20.930;2023-03-23T16:22:40;7.30;;;3.38;;